createdAt,value
2017-10-12T00:00:24.748Z,1005.83
2017-10-12T00:00:50.917Z,1005.82
2017-10-12T00:01:17.071Z,1005.81
2017-10-12T00:01:43.217Z,1005.85
2017-10-12T00:02:09.366Z,1005.74
2017-10-12T00:02:35.509Z,1005.8
2017-10-12T00:03:01.655Z,1005.84
2017-10-12T00:03:27.797Z,1005.75
2017-10-12T00:03:53.940Z,1005.81
2017-10-12T00:04:20.084Z,1005.79
2017-10-12T00:04:46.242Z,1005.86
2017-10-12T00:05:12.425Z,1005.76
2017-10-12T00:05:38.565Z,1005.78
2017-10-12T00:06:04.738Z,1005.78
2017-10-12T00:06:30.871Z,1005.8
2017-10-12T00:06:57.041Z,1005.67
2017-10-12T00:07:23.183Z,1005.78
2017-10-12T00:07:49.338Z,1005.73
2017-10-12T00:08:15.478Z,1005.75
2017-10-12T00:08:41.623Z,1005.79
2017-10-12T00:09:07.772Z,1005.69
2017-10-12T00:09:33.923Z,1005.7
2017-10-12T00:10:00.066Z,1005.65
2017-10-12T00:10:26.211Z,1005.91
2017-10-12T00:10:52.365Z,1005.8
2017-10-12T00:11:18.518Z,1005.85
2017-10-12T00:11:44.660Z,1005.85
2017-10-12T00:12:10.807Z,1005.78
2017-10-12T00:12:36.956Z,1005.8
2017-10-12T00:13:03.125Z,1005.79
2017-10-12T00:13:29.266Z,1005.82
2017-10-12T00:13:55.418Z,1005.83
2017-10-12T00:14:21.560Z,1005.83
2017-10-12T00:14:47.723Z,1005.79
2017-10-12T00:15:13.837Z,1005.8
2017-10-12T00:15:39.965Z,1005.88
2017-10-12T00:16:06.095Z,1005.9
2017-10-12T00:16:32.220Z,1006
2017-10-12T00:16:58.351Z,1005.85
2017-10-12T00:17:24.472Z,1006.04
2017-10-12T00:17:50.625Z,1005.87
2017-10-12T00:18:16.754Z,1005.84
2017-10-12T00:18:42.882Z,1005.98
2017-10-12T00:19:09.004Z,1005.81
2017-10-12T00:19:35.123Z,1005.98
2017-10-12T00:20:01.249Z,1005.92
2017-10-12T00:20:27.366Z,1006.02
2017-10-12T00:20:53.489Z,1005.89
2017-10-12T00:21:19.616Z,1005.84
2017-10-12T00:21:45.744Z,1005.86
2017-10-12T00:22:11.862Z,1005.82
2017-10-12T00:22:37.981Z,1005.94
2017-10-12T00:23:04.108Z,1005.91
2017-10-12T00:23:30.227Z,1005.86
2017-10-12T00:23:56.356Z,1005.93
2017-10-12T00:24:22.473Z,1006.04
2017-10-12T00:24:48.599Z,1006
2017-10-12T00:25:14.720Z,1005.97
2017-10-12T00:25:40.860Z,1006.01
2017-10-12T00:26:06.968Z,1005.94
2017-10-12T00:26:33.091Z,1005.86
2017-10-12T00:26:59.209Z,1006.17
2017-10-12T00:27:25.335Z,1005.92
2017-10-12T00:27:51.461Z,1006.05
2017-10-12T00:28:17.580Z,1005.91
2017-10-12T00:28:43.711Z,1005.97
2017-10-12T00:29:09.839Z,1005.91
2017-10-12T00:29:35.965Z,1005.93
2017-10-12T00:30:02.092Z,1005.89
2017-10-12T00:30:28.216Z,1005.92
2017-10-12T00:30:54.353Z,1005.94
2017-10-12T00:31:20.479Z,1005.84
2017-10-12T00:31:46.626Z,1005.98
2017-10-12T00:32:12.750Z,1006.07
2017-10-12T00:32:38.875Z,1005.87
2017-10-12T00:33:05.000Z,1005.94
2017-10-12T00:33:31.138Z,1005.91
2017-10-12T00:33:57.263Z,1005.92
2017-10-12T00:34:23.401Z,1005.92
2017-10-12T00:34:49.532Z,1005.97
2017-10-12T00:35:15.649Z,1005.96
2017-10-12T00:35:41.769Z,1005.9
2017-10-12T00:36:07.889Z,1005.96
2017-10-12T00:36:34.015Z,1005.83
2017-10-12T00:37:00.131Z,1005.96
2017-10-12T00:37:26.254Z,1005.84
2017-10-12T00:37:52.387Z,1005.85
2017-10-12T00:38:18.512Z,1005.81
2017-10-12T00:38:44.642Z,1005.93
2017-10-12T00:39:10.759Z,1005.93
2017-10-12T00:39:36.880Z,1005.92
2017-10-12T00:40:03.001Z,1005.96
2017-10-12T00:40:29.121Z,1005.89
2017-10-12T00:40:55.256Z,1005.88
2017-10-12T00:41:21.373Z,1005.85
2017-10-12T00:41:47.502Z,1005.93
2017-10-12T00:42:13.622Z,1005.89
2017-10-12T00:42:39.740Z,1005.91
2017-10-12T00:43:05.864Z,1005.71
2017-10-12T00:43:32.011Z,1005.86
2017-10-12T00:43:58.111Z,1005.9
2017-10-12T00:44:24.230Z,1005.85
2017-10-12T00:44:50.360Z,1005.93
2017-10-12T00:45:16.495Z,1005.87
2017-10-12T00:45:42.636Z,1005.83
2017-10-12T00:46:08.740Z,1005.9
2017-10-12T00:46:34.865Z,1005.95
2017-10-12T00:47:00.993Z,1005.86
2017-10-12T00:47:27.112Z,1005.87
2017-10-12T00:47:53.236Z,1005.86
2017-10-12T00:48:19.389Z,1005.88
2017-10-12T00:48:45.513Z,1005.95
2017-10-12T00:49:11.636Z,1005.9
2017-10-12T00:49:37.760Z,1005.86
2017-10-12T00:50:03.885Z,1005.94
2017-10-12T00:50:30.004Z,1005.88
2017-10-12T00:50:56.130Z,1005.89
2017-10-12T00:51:22.255Z,1005.94
2017-10-12T00:51:48.377Z,1005.78
2017-10-12T00:52:14.501Z,1006.05
2017-10-12T00:52:40.617Z,1005.9
2017-10-12T00:53:06.743Z,1005.94
2017-10-12T00:53:32.865Z,1005.85
2017-10-12T00:53:58.989Z,1005.91
2017-10-12T00:54:25.107Z,1005.94
2017-10-12T00:54:51.238Z,1005.91
2017-10-12T00:55:17.371Z,1005.95
2017-10-12T00:55:43.486Z,1005.96
2017-10-12T00:56:09.629Z,1005.92
2017-10-12T00:56:35.754Z,1005.97
2017-10-12T00:57:01.877Z,1005.89
2017-10-12T00:57:28.007Z,1006.03
2017-10-12T00:57:54.127Z,1006.01
2017-10-12T00:58:20.247Z,1006.11
2017-10-12T00:58:46.374Z,1005.97
2017-10-12T00:59:12.493Z,1006
2017-10-12T00:59:38.621Z,1005.94
2017-10-12T01:00:04.740Z,1005.95
2017-10-12T01:00:30.865Z,1006.01
2017-10-12T01:00:56.989Z,1006.01
2017-10-12T01:01:23.110Z,1005.94
2017-10-12T01:01:49.233Z,1006.01
2017-10-12T01:02:15.351Z,1006.01
2017-10-12T01:02:41.470Z,1005.91
2017-10-12T01:03:07.592Z,1005.92
2017-10-12T01:03:33.714Z,1005.91
2017-10-12T01:03:59.841Z,1006.09
2017-10-12T01:04:25.958Z,1005.97
2017-10-12T01:04:52.087Z,1005.93
2017-10-12T01:05:18.212Z,1005.92
2017-10-12T01:05:44.328Z,1006.03
2017-10-12T01:06:10.453Z,1006.02
2017-10-12T01:06:36.570Z,1006
2017-10-12T01:07:02.700Z,1005.99
2017-10-12T01:07:28.840Z,1005.95
2017-10-12T01:07:54.980Z,1005.96
2017-10-12T01:08:21.105Z,1005.84
2017-10-12T01:08:47.222Z,1005.94
2017-10-12T01:09:13.351Z,1005.86
2017-10-12T01:09:39.478Z,1005.94
2017-10-12T01:10:05.596Z,1005.89
2017-10-12T01:10:31.718Z,1005.95
2017-10-12T01:10:57.837Z,1005.85
2017-10-12T01:11:23.967Z,1005.87
2017-10-12T01:11:50.103Z,1005.87
2017-10-12T01:12:16.223Z,1005.86
2017-10-12T01:12:42.375Z,1005.8
2017-10-12T01:13:08.493Z,1005.85
2017-10-12T01:13:34.618Z,1005.88
2017-10-12T01:14:00.745Z,1005.9
2017-10-12T01:14:26.862Z,1005.89
2017-10-12T01:14:52.991Z,1005.88
2017-10-12T01:15:19.109Z,1005.85
2017-10-12T01:15:45.229Z,1005.85
2017-10-12T01:16:11.355Z,1005.84
2017-10-12T01:16:37.474Z,1005.75
2017-10-12T01:17:03.601Z,1006
2017-10-12T01:17:29.719Z,1005.78
2017-10-12T01:17:55.846Z,1005.74
2017-10-12T01:18:21.972Z,1005.81
2017-10-12T01:18:48.089Z,1005.78
2017-10-12T01:19:14.209Z,1005.78
2017-10-12T01:19:40.358Z,1005.77
2017-10-12T01:20:06.482Z,1005.78
2017-10-12T01:20:32.599Z,1005.72
2017-10-12T01:20:58.729Z,1005.8
2017-10-12T01:21:24.846Z,1005.79
2017-10-12T01:21:50.966Z,1005.82
2017-10-12T01:22:17.118Z,1005.83
2017-10-12T01:22:43.242Z,1005.83
2017-10-12T01:23:09.385Z,1005.88
2017-10-12T01:23:35.502Z,1005.76
2017-10-12T01:24:01.629Z,1005.76
2017-10-12T01:24:27.745Z,1005.82
2017-10-12T01:24:53.890Z,1005.82
2017-10-12T01:25:20.015Z,1005.74
2017-10-12T01:25:46.134Z,1005.79
2017-10-12T01:26:12.259Z,1005.73
2017-10-12T01:26:38.376Z,1005.74
2017-10-12T01:27:04.501Z,1005.81
2017-10-12T01:27:30.622Z,1005.77
2017-10-12T01:27:56.744Z,1005.73
2017-10-12T01:28:22.865Z,1005.67
2017-10-12T01:28:49.005Z,1005.8
2017-10-12T01:29:15.144Z,1005.79
2017-10-12T01:29:41.268Z,1005.73
2017-10-12T01:30:07.419Z,1005.79
2017-10-12T01:30:33.537Z,1005.82
2017-10-12T01:30:59.681Z,1005.75
2017-10-12T01:31:25.816Z,1005.81
2017-10-12T01:31:51.936Z,1005.86
2017-10-12T01:32:18.066Z,1005.73
2017-10-12T01:32:44.183Z,1005.66
2017-10-12T01:33:10.300Z,1005.66
2017-10-12T01:33:36.429Z,1005.88
2017-10-12T01:34:02.551Z,1005.71
2017-10-12T01:34:28.672Z,1005.73
2017-10-12T01:34:54.794Z,1005.8
2017-10-12T01:35:20.917Z,1005.7
2017-10-12T01:35:47.031Z,1005.71
2017-10-12T01:36:13.160Z,1005.68
2017-10-12T01:36:39.303Z,1005.69
2017-10-12T01:37:05.421Z,1005.68
2017-10-12T01:37:31.544Z,1005.74
2017-10-12T01:37:57.671Z,1005.7
2017-10-12T01:38:23.787Z,1005.83
2017-10-12T01:38:49.914Z,1005.67
2017-10-12T01:39:16.037Z,1005.72
2017-10-12T01:39:42.157Z,1005.75
2017-10-12T01:40:08.285Z,1005.64
2017-10-12T01:40:34.402Z,1005.8
2017-10-12T01:41:00.524Z,1005.6
2017-10-12T01:41:26.651Z,1005.68
2017-10-12T01:41:52.772Z,1005.55
2017-10-12T01:42:18.895Z,1005.69
2017-10-12T01:42:45.014Z,1005.66
2017-10-12T01:43:11.136Z,1005.67
2017-10-12T01:43:37.261Z,1005.67
2017-10-12T01:44:03.380Z,1005.66
2017-10-12T01:44:29.507Z,1005.62
2017-10-12T01:44:55.628Z,1005.69
2017-10-12T01:45:21.750Z,1005.69
2017-10-12T01:45:47.867Z,1005.61
2017-10-12T01:46:14.018Z,1005.68
2017-10-12T01:46:40.137Z,1005.68
2017-10-12T01:47:06.258Z,1005.62
2017-10-12T01:47:32.380Z,1005.68
2017-10-12T01:47:58.503Z,1005.61
2017-10-12T01:48:24.623Z,1005.71
2017-10-12T01:48:50.744Z,1005.62
2017-10-12T01:49:16.866Z,1005.67
2017-10-12T01:49:42.983Z,1005.64
2017-10-12T01:50:09.111Z,1005.68
2017-10-12T01:50:35.237Z,1005.71
2017-10-12T01:51:01.360Z,1005.75
2017-10-12T01:51:27.486Z,1005.76
2017-10-12T01:51:53.600Z,1005.73
2017-10-12T01:52:19.727Z,1005.7
2017-10-12T01:52:45.851Z,1005.68
2017-10-12T01:53:11.970Z,1005.66
2017-10-12T01:53:38.086Z,1005.72
2017-10-12T01:54:04.207Z,1005.72
2017-10-12T01:54:30.333Z,1005.71
2017-10-12T01:54:56.461Z,1005.67
2017-10-12T01:55:22.587Z,1005.69
2017-10-12T01:55:48.704Z,1005.69
2017-10-12T01:56:14.832Z,1005.69
2017-10-12T01:56:40.954Z,1005.74
2017-10-12T01:57:07.073Z,1005.74
2017-10-12T01:57:33.191Z,1005.69
2017-10-12T01:57:59.322Z,1005.71
2017-10-12T01:58:25.443Z,1005.7
2017-10-12T01:58:51.581Z,1005.71
2017-10-12T01:59:17.708Z,1005.69
2017-10-12T01:59:43.825Z,1005.75
2017-10-12T02:00:09.945Z,1005.64
2017-10-12T02:00:36.094Z,1005.64
2017-10-12T02:01:02.211Z,1005.75
2017-10-12T02:01:28.336Z,1005.82
2017-10-12T02:01:54.455Z,1005.72
2017-10-12T02:02:20.584Z,1005.71
2017-10-12T02:02:46.701Z,1005.64
2017-10-12T02:03:12.828Z,1005.69
2017-10-12T02:03:38.952Z,1005.76
2017-10-12T02:04:05.073Z,1005.82
2017-10-12T02:04:31.198Z,1005.73
2017-10-12T02:04:57.318Z,1005.76
2017-10-12T02:05:23.445Z,1005.68
2017-10-12T02:05:49.566Z,1005.74
2017-10-12T02:06:15.711Z,1005.79
2017-10-12T02:06:41.827Z,1005.74
2017-10-12T02:07:07.946Z,1005.71
2017-10-12T02:07:34.074Z,1005.71
2017-10-12T02:08:00.199Z,1005.69
2017-10-12T02:08:26.315Z,1005.83
2017-10-12T02:08:52.437Z,1005.82
2017-10-12T02:09:18.562Z,1005.74
2017-10-12T02:09:44.679Z,1005.82
2017-10-12T02:10:10.802Z,1005.86
2017-10-12T02:10:36.932Z,1005.77
2017-10-12T02:11:03.058Z,1005.72
2017-10-12T02:11:29.169Z,1005.73
2017-10-12T02:11:55.294Z,1005.78
2017-10-12T02:12:21.415Z,1005.76
2017-10-12T02:12:47.537Z,1005.78
2017-10-12T02:13:13.659Z,1005.83
2017-10-12T02:13:39.780Z,1005.81
2017-10-12T02:14:05.902Z,1005.77
2017-10-12T02:14:32.026Z,1005.82
2017-10-12T02:14:58.148Z,1005.77
2017-10-12T02:15:24.301Z,1005.85
2017-10-12T02:15:50.425Z,1005.81
2017-10-12T02:16:16.540Z,1005.85
2017-10-12T02:16:42.679Z,1005.8
2017-10-12T02:17:08.796Z,1005.83
2017-10-12T02:17:34.918Z,1005.74
2017-10-12T02:18:01.037Z,1005.87
2017-10-12T02:18:27.156Z,1005.76
2017-10-12T02:18:53.281Z,1005.84
2017-10-12T02:19:19.404Z,1005.74
2017-10-12T02:19:45.526Z,1005.86
2017-10-12T02:20:11.671Z,1005.84
2017-10-12T02:20:37.805Z,1005.86
2017-10-12T02:21:03.934Z,1005.82
2017-10-12T02:21:30.052Z,1005.85
2017-10-12T02:21:56.176Z,1005.84
2017-10-12T02:22:22.296Z,1005.87
2017-10-12T02:22:48.414Z,1005.79
2017-10-12T02:23:14.542Z,1005.73
2017-10-12T02:23:40.668Z,1005.95
2017-10-12T02:24:06.787Z,1005.82
2017-10-12T02:24:32.913Z,1005.74
2017-10-12T02:24:59.030Z,1005.77
2017-10-12T02:25:25.158Z,1005.8
2017-10-12T02:25:51.277Z,1005.77
2017-10-12T02:26:17.400Z,1005.74
2017-10-12T02:26:43.525Z,1005.78
2017-10-12T02:27:09.648Z,1005.73
2017-10-12T02:27:35.770Z,1005.74
2017-10-12T02:28:01.907Z,1005.76
2017-10-12T02:28:28.033Z,1005.75
2017-10-12T02:28:54.157Z,1005.79
2017-10-12T02:29:20.276Z,1005.76
2017-10-12T02:29:46.411Z,1005.82
2017-10-12T02:30:12.527Z,1005.84
2017-10-12T02:30:38.650Z,1005.84
2017-10-12T02:31:04.766Z,1005.86
2017-10-12T02:31:30.893Z,1005.82
2017-10-12T02:31:57.019Z,1005.84
2017-10-12T02:32:23.138Z,1005.73
2017-10-12T02:32:49.266Z,1005.76
2017-10-12T02:33:15.381Z,1005.8
2017-10-12T02:33:41.508Z,1005.78
2017-10-12T02:34:07.626Z,1005.85
2017-10-12T02:34:33.754Z,1005.84
2017-10-12T02:34:59.892Z,1005.9
2017-10-12T02:35:26.011Z,1005.91
2017-10-12T02:35:52.135Z,1005.89
2017-10-12T02:36:18.267Z,1005.95
2017-10-12T02:36:44.390Z,1005.88
2017-10-12T02:37:10.515Z,1005.93
2017-10-12T02:37:36.634Z,1005.91
2017-10-12T02:38:02.759Z,1005.93
2017-10-12T02:38:28.876Z,1005.95
2017-10-12T02:38:54.994Z,1005.91
2017-10-12T02:39:21.112Z,1005.91
2017-10-12T02:39:47.239Z,1005.92
2017-10-12T02:40:13.367Z,1005.96
2017-10-12T02:40:39.490Z,1005.92
2017-10-12T02:41:05.625Z,1005.93
2017-10-12T02:41:31.744Z,1005.96
2017-10-12T02:41:57.867Z,1005.94
2017-10-12T02:42:23.982Z,1005.94
2017-10-12T02:42:50.099Z,1005.98
2017-10-12T02:43:16.258Z,1006.01
2017-10-12T02:43:42.403Z,1005.97
2017-10-12T02:44:08.521Z,1005.93
2017-10-12T02:44:34.644Z,1006.02
2017-10-12T02:45:00.760Z,1005.96
2017-10-12T02:45:26.895Z,1005.99
2017-10-12T02:45:53.004Z,1006.03
2017-10-12T02:46:19.133Z,1005.91
2017-10-12T02:46:45.273Z,1005.91
2017-10-12T02:47:11.397Z,1005.99
2017-10-12T02:47:37.523Z,1006.01
2017-10-12T02:48:03.660Z,1005.99
2017-10-12T02:48:29.784Z,1005.98
2017-10-12T02:48:55.901Z,1006.03
2017-10-12T02:49:22.029Z,1006.01
2017-10-12T02:49:48.156Z,1006.03
2017-10-12T02:50:14.285Z,1006.05
2017-10-12T02:50:40.413Z,1006.02
2017-10-12T02:51:06.533Z,1006.09
2017-10-12T02:51:32.664Z,1006.05
2017-10-12T02:51:58.789Z,1006.07
2017-10-12T02:52:24.924Z,1006.07
2017-10-12T02:52:51.052Z,1006.09
2017-10-12T02:53:17.194Z,1006.1
2017-10-12T02:53:43.314Z,1006.07
2017-10-12T02:54:09.456Z,1006.07
2017-10-12T02:54:35.580Z,1006.08
2017-10-12T02:55:01.721Z,1006.15
2017-10-12T02:55:27.845Z,1006.14
2017-10-12T02:55:53.966Z,1006.15
2017-10-12T02:56:20.096Z,1006.09
2017-10-12T02:56:46.217Z,1006.11
2017-10-12T02:57:12.345Z,1006.11
2017-10-12T02:57:38.483Z,1006.11
2017-10-12T02:58:04.604Z,1006.1
2017-10-12T02:58:30.723Z,1006.16
2017-10-12T02:58:56.845Z,1006.15
2017-10-12T02:59:22.973Z,1006.18
2017-10-12T02:59:49.098Z,1006.15
2017-10-12T03:00:15.219Z,1006.21
2017-10-12T03:00:41.336Z,1006.13
2017-10-12T03:01:07.464Z,1006.17
2017-10-12T03:01:33.609Z,1006.16
2017-10-12T03:01:59.725Z,1006.18
2017-10-12T03:02:25.859Z,1006.2
2017-10-12T03:02:51.984Z,1006.24
2017-10-12T03:03:18.100Z,1006.25
2017-10-12T03:03:44.226Z,1006.24
2017-10-12T03:04:10.339Z,1006.18
2017-10-12T03:04:36.481Z,1006.19
2017-10-12T03:05:02.612Z,1006.28
2017-10-12T03:05:28.727Z,1006.19
2017-10-12T03:05:54.851Z,1006.2
2017-10-12T03:06:20.968Z,1006.21
2017-10-12T03:06:47.095Z,1006.22
2017-10-12T03:07:13.238Z,1006.18
2017-10-12T03:07:39.356Z,1006.19
2017-10-12T03:08:05.479Z,1006.15
2017-10-12T03:08:31.605Z,1006.21
2017-10-12T03:08:57.729Z,1006.17
2017-10-12T03:09:23.844Z,1006.23
2017-10-12T03:09:49.971Z,1006.26
2017-10-12T03:10:16.091Z,1006.21
2017-10-12T03:10:42.241Z,1006.27
2017-10-12T03:11:08.355Z,1006.32
2017-10-12T03:11:34.483Z,1006.36
2017-10-12T03:12:00.603Z,1006.25
2017-10-12T03:12:26.720Z,1006.38
2017-10-12T03:12:52.848Z,1006.37
2017-10-12T03:13:18.966Z,1006.42
2017-10-12T03:13:45.096Z,1006.41
2017-10-12T03:14:11.216Z,1006.43
2017-10-12T03:14:37.341Z,1006.43
2017-10-12T03:15:03.460Z,1006.46
2017-10-12T03:15:29.586Z,1006.47
2017-10-12T03:15:55.710Z,1006.42
2017-10-12T03:16:21.831Z,1006.38
2017-10-12T03:16:47.958Z,1006.39
2017-10-12T03:17:14.072Z,1006.41
2017-10-12T03:17:40.214Z,1006.38
2017-10-12T03:18:06.355Z,1006.34
2017-10-12T03:18:32.492Z,1006.39
2017-10-12T03:18:58.622Z,1006.32
2017-10-12T03:19:24.738Z,1006.35
2017-10-12T03:19:50.862Z,1006.36
2017-10-12T03:20:16.987Z,1006.34
2017-10-12T03:20:43.112Z,1006.37
2017-10-12T03:21:09.227Z,1006.38
2017-10-12T03:21:35.356Z,1006.36
2017-10-12T03:22:01.477Z,1006.37
2017-10-12T03:22:27.608Z,1006.4
2017-10-12T03:22:53.725Z,1006.39
2017-10-12T03:23:19.847Z,1006.37
2017-10-12T03:23:45.991Z,1006.35
2017-10-12T03:24:12.131Z,1006.43
2017-10-12T03:24:38.283Z,1006.41
2017-10-12T03:25:04.399Z,1006.41
2017-10-12T03:25:30.531Z,1006.39
2017-10-12T03:25:56.661Z,1006.42
2017-10-12T03:26:22.773Z,1006.43
2017-10-12T03:26:48.894Z,1006.44
2017-10-12T03:27:15.022Z,1006.37
2017-10-12T03:27:41.146Z,1006.36
2017-10-12T03:28:07.294Z,1006.37
2017-10-12T03:28:33.410Z,1006.35
2017-10-12T03:28:59.536Z,1006.31
2017-10-12T03:29:25.655Z,1006.34
2017-10-12T03:29:51.781Z,1006.34
2017-10-12T03:30:17.897Z,1006.34
2017-10-12T03:30:44.023Z,1006.36
2017-10-12T03:31:10.162Z,1006.38
2017-10-12T03:31:36.270Z,1006.35
2017-10-12T03:32:02.389Z,1006.36
2017-10-12T03:32:28.508Z,1006.32
2017-10-12T03:32:54.635Z,1006.34
2017-10-12T03:33:20.754Z,1006.31
2017-10-12T03:33:46.878Z,1006.34
2017-10-12T03:34:13.005Z,1006.36
2017-10-12T03:34:39.146Z,1006.37
2017-10-12T03:35:05.272Z,1006.37
2017-10-12T03:35:31.390Z,1006.29
2017-10-12T03:35:57.515Z,1006.27
2017-10-12T03:36:23.634Z,1006.31
2017-10-12T03:36:49.753Z,1006.27
2017-10-12T03:37:15.881Z,1006.3
2017-10-12T03:37:41.999Z,1006.32
2017-10-12T03:38:08.125Z,1006.35
2017-10-12T03:38:34.248Z,1006.33
2017-10-12T03:39:00.365Z,1006.36
2017-10-12T03:39:26.491Z,1006.36
2017-10-12T03:39:52.614Z,1006.35
2017-10-12T03:40:18.736Z,1006.41
2017-10-12T03:40:44.866Z,1006.39
2017-10-12T03:41:10.984Z,1006.41
2017-10-12T03:41:37.110Z,1006.44
2017-10-12T03:42:03.235Z,1006.48
2017-10-12T03:42:29.348Z,1006.47
2017-10-12T03:42:55.469Z,1006.46
2017-10-12T03:43:21.597Z,1006.48
2017-10-12T03:43:47.729Z,1006.47
2017-10-12T03:44:13.838Z,1006.45
2017-10-12T03:44:39.965Z,1006.45
2017-10-12T03:45:06.109Z,1006.47
2017-10-12T03:45:32.253Z,1006.45
2017-10-12T03:45:58.371Z,1006.44
2017-10-12T03:46:24.501Z,1006.49
2017-10-12T03:46:50.625Z,1006.45
2017-10-12T03:47:16.744Z,1006.47
2017-10-12T03:47:42.871Z,1006.54
2017-10-12T03:48:08.991Z,1006.57
2017-10-12T03:48:35.106Z,1006.57
2017-10-12T03:49:01.234Z,1006.59
2017-10-12T03:49:27.352Z,1006.6
2017-10-12T03:49:53.473Z,1006.64
2017-10-12T03:50:19.599Z,1006.65
2017-10-12T03:50:45.718Z,1006.64
2017-10-12T03:51:11.845Z,1006.68
2017-10-12T03:51:37.965Z,1006.68
2017-10-12T03:52:04.093Z,1006.7
2017-10-12T03:52:30.216Z,1006.76
2017-10-12T03:52:56.332Z,1006.72
2017-10-12T03:53:22.452Z,1006.72
2017-10-12T03:53:48.585Z,1006.73
2017-10-12T03:54:14.714Z,1006.73
2017-10-12T03:54:40.832Z,1006.75
2017-10-12T03:55:06.961Z,1006.79
2017-10-12T03:55:33.098Z,1006.82
2017-10-12T03:55:59.219Z,1006.81
2017-10-12T03:56:25.350Z,1006.85
2017-10-12T03:56:51.473Z,1006.85
2017-10-12T03:57:17.592Z,1006.85
2017-10-12T03:57:43.717Z,1006.9
2017-10-12T03:58:09.838Z,1006.88
2017-10-12T03:58:35.960Z,1006.9
2017-10-12T03:59:02.081Z,1006.89
2017-10-12T03:59:28.197Z,1006.9
2017-10-12T03:59:54.325Z,1006.89
2017-10-12T04:00:20.470Z,1006.89
2017-10-12T04:00:46.588Z,1006.89
2017-10-12T04:01:12.714Z,1006.89
2017-10-12T04:01:38.853Z,1006.91
2017-10-12T04:02:04.969Z,1006.88
2017-10-12T04:02:31.088Z,1006.91
2017-10-12T04:02:57.208Z,1006.91
2017-10-12T04:03:23.332Z,1006.96
2017-10-12T04:03:49.450Z,1006.93
2017-10-12T04:04:15.575Z,1006.91
2017-10-12T04:04:41.693Z,1006.88
2017-10-12T04:05:07.815Z,1006.94
2017-10-12T04:05:33.942Z,1006.93
2017-10-12T04:06:00.067Z,1006.93
2017-10-12T04:06:26.185Z,1006.93
2017-10-12T04:06:52.313Z,1006.95
2017-10-12T04:07:18.429Z,1006.92
2017-10-12T04:07:44.554Z,1006.99
2017-10-12T04:08:10.671Z,1006.91
2017-10-12T04:08:36.792Z,1006.95
2017-10-12T04:09:02.924Z,1006.93
2017-10-12T04:09:29.042Z,1006.9
2017-10-12T04:09:55.169Z,1006.9
2017-10-12T04:10:21.283Z,1006.93
2017-10-12T04:10:47.412Z,1006.92
2017-10-12T04:11:13.534Z,1006.89
2017-10-12T04:11:39.658Z,1006.91
2017-10-12T04:12:05.782Z,1006.95
2017-10-12T04:12:31.925Z,1006.87
2017-10-12T04:12:58.045Z,1006.86
2017-10-12T04:13:24.177Z,1006.95
2017-10-12T04:13:50.294Z,1006.91
2017-10-12T04:14:16.412Z,1006.92
2017-10-12T04:14:42.537Z,1006.96
2017-10-12T04:15:08.663Z,1006.85
2017-10-12T04:15:34.795Z,1006.99
2017-10-12T04:16:00.915Z,1006.9
2017-10-12T04:16:27.044Z,1006.97
2017-10-12T04:16:53.163Z,1006.97
2017-10-12T04:17:19.289Z,1006.99
2017-10-12T04:17:45.416Z,1007.03
2017-10-12T04:18:11.528Z,1006.92
2017-10-12T04:18:37.650Z,1007.05
2017-10-12T04:19:03.771Z,1006.99
2017-10-12T04:19:29.895Z,1006.97
2017-10-12T04:19:56.018Z,1007.01
2017-10-12T04:20:22.135Z,1006.96
2017-10-12T04:20:48.281Z,1007.02
2017-10-12T04:21:14.392Z,1006.98
2017-10-12T04:21:40.511Z,1007.05
2017-10-12T04:22:06.633Z,1007.05
2017-10-12T04:22:32.752Z,1007.06
2017-10-12T04:22:58.884Z,1007.08
2017-10-12T04:23:25.017Z,1007.03
2017-10-12T04:23:51.139Z,1007.14
2017-10-12T04:24:17.264Z,1007.13
2017-10-12T04:24:43.384Z,1007.15
2017-10-12T04:25:09.534Z,1007.18
2017-10-12T04:25:35.662Z,1007.2
2017-10-12T04:26:01.778Z,1007.25
2017-10-12T04:26:27.900Z,1007.27
2017-10-12T04:26:54.045Z,1007.16
2017-10-12T04:27:20.171Z,1007.29
2017-10-12T04:27:46.295Z,1007.27
2017-10-12T04:28:12.418Z,1007.27
2017-10-12T04:28:38.555Z,1007.26
2017-10-12T04:29:04.698Z,1007.27
2017-10-12T04:29:30.822Z,1007.25
2017-10-12T04:29:56.944Z,1007.23
2017-10-12T04:30:23.071Z,1007.25
2017-10-12T04:30:49.186Z,1007.21
2017-10-12T04:31:15.312Z,1007.27
2017-10-12T04:31:41.438Z,1007.22
2017-10-12T04:32:07.555Z,1007.28
2017-10-12T04:32:33.679Z,1007.3
2017-10-12T04:32:59.816Z,1007.28
2017-10-12T04:33:25.921Z,1007.35
2017-10-12T04:33:52.050Z,1007.27
2017-10-12T04:34:18.168Z,1007.34
2017-10-12T04:34:44.294Z,1007.3
2017-10-12T04:35:10.445Z,1007.28
2017-10-12T04:35:36.563Z,1007.32
2017-10-12T04:36:02.691Z,1007.28
2017-10-12T04:36:28.811Z,1007.3
2017-10-12T04:36:54.939Z,1007.29
2017-10-12T04:37:21.123Z,1007.3
2017-10-12T04:37:47.228Z,1007.36
2017-10-12T04:38:13.364Z,1007.37
2017-10-12T04:38:39.490Z,1007.34
2017-10-12T04:39:05.610Z,1007.41
2017-10-12T04:39:31.732Z,1007.43
2017-10-12T04:39:57.856Z,1007.45
2017-10-12T04:40:23.975Z,1007.48
2017-10-12T04:40:50.098Z,1007.46
2017-10-12T04:41:16.226Z,1007.57
2017-10-12T04:41:42.340Z,1007.62
2017-10-12T04:42:08.471Z,1007.64
2017-10-12T04:42:34.588Z,1007.66
2017-10-12T04:43:00.726Z,1007.62
2017-10-12T04:43:26.851Z,1007.64
2017-10-12T04:43:52.986Z,1007.65
2017-10-12T04:44:19.123Z,1007.64
2017-10-12T04:44:45.244Z,1007.66
2017-10-12T04:45:11.363Z,1007.64
2017-10-12T04:45:37.484Z,1007.69
2017-10-12T04:46:03.608Z,1007.67
2017-10-12T04:46:29.729Z,1007.66
2017-10-12T04:46:55.852Z,1007.73
2017-10-12T04:47:21.974Z,1007.67
2017-10-12T04:47:48.100Z,1007.74
2017-10-12T04:48:14.217Z,1007.71
2017-10-12T04:48:40.343Z,1007.75
2017-10-12T04:49:06.466Z,1007.74
2017-10-12T04:49:32.588Z,1007.82
2017-10-12T04:49:58.728Z,1007.77
2017-10-12T04:50:24.855Z,1007.81
2017-10-12T04:50:50.982Z,1007.83
2017-10-12T04:51:17.101Z,1007.8
2017-10-12T04:51:43.226Z,1007.81
2017-10-12T04:52:09.342Z,1007.78
2017-10-12T04:52:35.463Z,1007.83
2017-10-12T04:53:01.586Z,1007.85
2017-10-12T04:53:27.710Z,1007.83
2017-10-12T04:53:53.835Z,1007.78
2017-10-12T04:54:19.952Z,1007.84
2017-10-12T04:54:46.102Z,1007.8
2017-10-12T04:55:12.222Z,1007.84
2017-10-12T04:55:38.367Z,1007.82
2017-10-12T04:56:04.494Z,1007.85
2017-10-12T04:56:30.612Z,1007.88
2017-10-12T04:56:56.740Z,1007.88
2017-10-12T04:57:22.866Z,1007.88
2017-10-12T04:57:48.986Z,1007.88
2017-10-12T04:58:15.127Z,1007.88
2017-10-12T04:58:41.231Z,1007.93
2017-10-12T04:59:07.357Z,1007.95
2017-10-12T04:59:33.471Z,1007.91
2017-10-12T04:59:59.596Z,1007.94
2017-10-12T05:00:25.720Z,1007.93
2017-10-12T05:00:51.846Z,1007.95
2017-10-12T05:01:17.968Z,1008
2017-10-12T05:01:44.087Z,1007.95
2017-10-12T05:02:10.206Z,1008.01
2017-10-12T05:02:36.334Z,1007.96
2017-10-12T05:03:02.459Z,1007.97
2017-10-12T05:03:28.574Z,1008.05
2017-10-12T05:03:54.695Z,1008
2017-10-12T05:04:20.818Z,1008.02
2017-10-12T05:04:46.941Z,1007.98
2017-10-12T05:05:13.081Z,1008.03
2017-10-12T05:05:39.232Z,1007.98
2017-10-12T05:06:05.348Z,1008.02
2017-10-12T05:06:31.473Z,1008.07
2017-10-12T05:06:57.594Z,1008.07
2017-10-12T05:07:23.715Z,1008.1
2017-10-12T05:07:49.845Z,1008.11
2017-10-12T05:08:15.966Z,1008.03
2017-10-12T05:08:42.099Z,1008.11
2017-10-12T05:09:08.215Z,1008.13
2017-10-12T05:09:34.341Z,1008.08
2017-10-12T05:10:00.465Z,1008.13
2017-10-12T05:10:26.604Z,1008.14
2017-10-12T05:10:52.732Z,1008.16
2017-10-12T05:11:18.848Z,1008.16
2017-10-12T05:11:45.013Z,1008.15
2017-10-12T05:12:11.140Z,1008.2
2017-10-12T05:12:37.261Z,1008.21
2017-10-12T05:13:03.386Z,1008.23
2017-10-12T05:13:29.507Z,1008.23
2017-10-12T05:13:55.628Z,1008.14
2017-10-12T05:14:21.747Z,1008.19
2017-10-12T05:14:47.892Z,1008.21
2017-10-12T05:15:14.018Z,1008.17
2017-10-12T05:15:40.139Z,1008.22
2017-10-12T05:16:06.259Z,1008.23
2017-10-12T05:16:32.385Z,1008.27
2017-10-12T05:16:58.502Z,1008.22